Terminal Aerodrome Forecast
Issued by NWS

Home | Current Version | Previous Version | Text Only | Print | Product List | Glossary On
Versions: 1 2 3 4 5 6 7 8 9 10 11 12 13 14 15 16 17 18 19 20 21 22 23 24 25 26 27 28
000
FTUS45 KPSR 160000 AAA
TAFIWA
TAF AMD
KIWA 160052Z 1601/1624 23005KT P6SM SCT100 BKN200
     FM160300 09009KT P6SM SCT100 BKN150
     FM161100 13008KT P6SM BKN060 BKN150
     FM162100 17008KT P6SM VCSH BKN070 BKN120
      AMD LTD TO CLD VIS AND WIND 1603/1613=

USA.gov is the U.S. government's official web portal to all federal, state and local government web resources and services.